Time;durP1;ratioP1;P1;durP2;ratioP2;P2;SDS_P1;SDS_P2;PMS_P1;PMS_P2;Temp;Humidity;BMP_temperature;BMP_pressure;BME280_temperature;BME280_humidity;BME280_pressure;Samples;Min_cycle;Max_cycle;Signal;HPM_P1;HPM_P2
2022/09/08 00:01:25;;;;;;;13.23;3.65;;;;;;;15.35;96.67;99491.59;6225267;23;20024;-41
2022/09/08 00:03:53;;;;;;;17.40;2.85;;;;;;;15.36;96.78;99491.16;6244647;23;20016;-39
2022/09/08 00:06:24;;;;;;;21.70;2.97;;;;;;;15.37;96.92;99486.38;6248276;23;20016;-39
2022/09/08 00:09:08;;;;;;;20.45;2.58;;;;;;;15.37;97.21;99475.22;6246441;23;20031;-46
2022/09/08 00:12:01;;;;;;;19.35;3.38;;;;;;;15.36;97.34;99479.22;6245322;23;20048;-47
2022/09/08 00:14:32;;;;;;;13.70;2.90;;;;;;;15.36;97.24;99479.22;6249183;23;20008;-40
2022/09/08 00:17:02;;;;;;;14.85;3.15;;;;;;;15.36;97.32;99480.00;6248435;23;20065;-39
2022/09/08 00:19:29;;;;;;;13.73;2.47;;;;;;;15.37;97.37;99475.22;6246909;23;20016;-43
2022/09/08 00:21:59;;;;;;;17.70;4.05;;;;;;;15.38;97.08;99471.25;6247932;23;20020;-40
2022/09/08 00:24:26;;;;;;;15.85;1.95;;;;;;;15.39;97.00;99467.25;6248770;23;20027;-41
2022/09/08 00:27:09;;;;;;;16.92;2.47;;;;;;;15.40;96.87;99469.63;6243189;23;20039;-39
2022/09/08 00:29:36;;;;;;;10.18;2.30;;;;;;;15.40;96.80;99464.06;6248488;23;20367;-41
2022/09/08 00:36:41;;;;;;;14.10;2.10;;;;;;;15.39;96.44;99462.47;6236156;22;20020;-40
2022/09/08 00:39:31;;;;;;;11.75;3.30;;;;;;;15.40;96.44;99468.84;6247609;23;20027;-39
2022/09/08 00:42:18;;;;;;;14.68;3.92;;;;;;;15.40;96.29;99466.06;6243337;23;20028;-40
2022/09/08 00:44:49;;;;;;;22.50;2.63;;;;;;;15.40;96.16;99468.84;6247903;23;20016;-40
2022/09/08 00:47:47;;;;;;;25.60;3.80;;;;;;;15.40;96.25;99469.63;6246521;23;20018;-40
2022/09/08 00:50:25;;;;;;;13.23;3.80;;;;;;;15.41;96.19;99459.28;6248369;23;20042;-41
2022/09/08 00:53:00;;;;;;;18.05;2.97;;;;;;;15.43;96.12;99462.44;6247102;23;20020;-39
2022/09/08 00:55:32;;;;;;;11.63;2.42;;;;;;;15.45;96.01;99465.63;6249954;23;20394;-39
2022/09/08 00:58:08;;;;;;;16.42;2.28;;;;;;;15.43;96.03;99456.88;6247409;23;20012;-41
2022/09/08 01:00:38;;;;;;;22.60;3.47;;;;;;;15.43;95.85;99465.25;6248866;23;20020;-39
2022/09/08 01:03:11;;;;;;;15.38;2.17;;;;;;;15.44;95.75;99459.25;6246834;23;20028;-41
2022/09/08 01:05:50;;;;;;;12.80;2.20;;;;;;;15.44;95.77;99461.22;6250542;23;20094;-41
2022/09/08 01:14:57;;;;;;;9.55;1.88;;;;;;;15.39;95.19;99447.72;6155409;23;20029;-41
2022/09/08 01:17:47;;;;;;;13.07;2.47;;;;;;;15.39;94.98;99451.31;6154934;23;20026;-39
2022/09/08 01:20:45;;;;;;;11.43;3.22;;;;;;;15.39;94.86;99447.72;6247542;23;20020;-40
2022/09/08 01:23:58;;;;;;;12.45;4.00;;;;;;;15.39;94.92;99444.94;6240093;23;20027;-40
2022/09/08 01:26:45;;;;;;;17.80;2.33;;;;;;;15.38;94.59;99460.09;6235333;23;20048;-40
2022/09/08 01:29:15;;;;;;;13.13;2.17;;;;;;;15.38;94.49;99460.09;6241730;23;20324;-47
2022/09/08 01:31:53;;;;;;;14.95;3.45;;;;;;;15.39;94.37;99456.88;6244088;23;20016;-40
2022/09/08 01:34:20;;;;;;;18.10;2.40;;;;;;;15.39;94.39;99467.25;6242748;23;20316;-40
2022/09/08 01:36:49;;;;;;;9.82;2.10;;;;;;;15.39;94.29;99444.94;6243080;23;20023;-43
2022/09/08 01:39:17;;;;;;;11.02;2.13;;;;;;;15.39;94.18;99456.09;6244376;23;20377;-41
2022/09/08 01:41:46;;;;;;;12.95;2.80;;;;;;;15.40;94.20;99452.91;6217675;23;20107;-39
2022/09/08 01:44:13;;;;;;;14.75;2.63;;;;;;;15.39;94.17;99448.53;6244995;23;20024;-41
2022/09/08 01:46:40;;;;;;;23.23;4.82;;;;;;;15.39;93.92;99450.50;6244840;23;20086;-41
2022/09/08 01:49:07;;;;;;;11.60;2.78;;;;;;;15.39;93.96;99448.53;6244316;23;20331;-41
2022/09/08 01:51:34;;;;;;;18.02;2.10;;;;;;;15.39;94.03;99447.72;6243619;23;20085;-39
2022/09/08 01:54:00;;;;;;;16.35;2.22;;;;;;;15.38;93.94;99443.38;6241933;23;20307;-43
2022/09/08 01:56:27;;;;;;;14.77;2.28;;;;;;;15.37;93.87;99444.56;6243957;23;20074;-40
2022/09/08 01:58:56;;;;;;;12.65;1.85;;;;;;;15.35;93.68;99442.19;6244309;23;20066;-43
2022/09/08 02:01:23;;;;;;;14.27;2.38;;;;;;;15.35;93.58;99444.97;6243193;23;20106;-40
2022/09/08 02:03:49;;;;;;;14.60;2.30;;;;;;;15.36;93.49;99451.31;6244688;23;20048;-41
2022/09/08 02:06:16;;;;;;;15.82;2.13;;;;;;;15.37;93.28;99452.91;6216128;23;20119;-41
2022/09/08 02:08:43;;;;;;;14.98;1.83;;;;;;;15.37;93.02;99438.97;6244667;23;20020;-38
2022/09/08 02:11:12;;;;;;;15.18;2.95;;;;;;;15.35;92.65;99449.75;6244712;23;20023;-41
2022/09/08 02:13:38;;;;;;;10.02;2.38;;;;;;;15.35;92.73;99450.56;6241012;23;20024;-40
2022/09/08 02:16:09;;;;;;;9.63;2.35;;;;;;;15.34;92.62;99437.00;6245647;23;20027;-41
2022/09/08 02:18:46;;;;;;;9.48;1.75;;;;;;;15.34;92.44;99442.56;6241553;23;20024;-41
2022/09/08 02:21:18;;;;;;;13.30;1.75;;;;;;;15.35;92.55;99430.22;6242723;23;20027;-39
2022/09/08 02:23:47;;;;;;;15.40;1.70;;;;;;;15.35;92.35;99433.81;6245421;23;20081;-41
2022/09/08 02:26:26;;;;;;;10.05;1.95;;;;;;;15.36;92.21;99434.59;6242883;23;20324;-40
2022/09/08 02:28:53;;;;;;;14.63;3.58;;;;;;;15.37;91.98;99436.19;6243613;23;20070;-43
2022/09/08 02:31:21;;;;;;;13.35;2.25;;;;;;;15.38;91.82;99426.63;6243805;23;20031;-39
2022/09/08 02:33:48;;;;;;;13.77;3.35;;;;;;;15.39;91.59;99428.19;6243362;23;20073;-40
2022/09/08 02:36:15;;;;;;;9.27;1.65;;;;;;;15.39;91.47;99417.84;6244140;23;20020;-45
2022/09/08 02:38:50;;;;;;;11.27;2.95;;;;;;;15.40;91.38;99424.22;6244399;23;20054;-40
2022/09/08 02:41:17;;;;;;;9.45;2.10;;;;;;;15.40;91.07;99435.38;6235911;23;20016;-51
2022/09/08 02:43:44;;;;;;;10.20;1.95;;;;;;;15.39;91.04;99433.78;6232668;23;20449;-41
2022/09/08 02:46:11;;;;;;;21.10;2.80;;;;;;;15.39;90.93;99433.78;6243592;23;20027;-41
2022/09/08 02:48:38;;;;;;;12.07;2.00;;;;;;;15.39;90.78;99431.78;6242492;23;20103;-43
2022/09/08 02:51:08;;;;;;;6.72;1.75;;;;;;;15.39;90.54;99425.41;6244937;23;20027;-41
2022/09/08 02:53:36;;;;;;;8.43;1.65;;;;;;;15.40;90.64;99430.59;6238372;23;20477;-39
2022/09/08 02:56:04;;;;;;;19.92;2.72;;;;;;;15.40;90.34;99438.16;6242937;23;20075;-41
2022/09/08 02:58:31;;;;;;;11.43;1.63;;;;;;;15.38;90.19;99427.41;6242700;23;20016;-41
2022/09/08 03:01:20;;;;;;;9.55;2.10;;;;;;;15.40;90.21;99429.78;6238522;23;20020;-44
2022/09/08 03:04:01;;;;;;;9.98;1.67;;;;;;;15.40;90.05;99427.00;6238834;23;20088;-39
2022/09/08 03:06:28;;;;;;;13.60;1.98;;;;;;;15.37;90.25;99427.81;6226719;22;20025;-40
2022/09/08 03:09:15;;;;;;;11.85;3.22;;;;;;;15.34;90.21;99431.44;6215969;23;20032;-40
2022/09/08 03:12:04;;;;;;;10.52;1.75;;;;;;;15.32;90.29;99423.47;6219117;23;20028;-39
2022/09/08 03:14:51;;;;;;;11.50;1.85;;;;;;;15.29;90.39;99429.06;6216179;23;20025;-42
2022/09/08 03:17:21;;;;;;;15.57;1.92;;;;;;;15.29;90.30;99434.66;6218466;23;20020;-41
2022/09/08 03:19:49;;;;;;;9.93;1.65;;;;;;;15.30;90.23;99431.47;6217553;23;20023;-40
2022/09/08 03:22:17;;;;;;;13.30;2.15;;;;;;;15.27;90.27;99430.25;6216259;23;20028;-40
2022/09/08 03:24:44;;;;;;;17.88;2.50;;;;;;;15.29;90.22;99434.66;6216666;23;20067;-48
2022/09/08 03:27:10;;;;;;;16.08;2.90;;;;;;;15.29;90.55;99434.66;6216507;23;20048;-42
2022/09/08 03:29:37;;;;;;;12.32;2.03;;;;;;;15.27;90.64;99438.63;6219109;23;20370;-38
2022/09/08 03:32:04;;;;;;;12.13;2.03;;;;;;;15.27;90.63;99437.06;6217523;23;20063;-39
2022/09/08 03:34:31;;;;;;;9.95;2.90;;;;;;;15.25;90.69;99443.81;6216327;23;20028;-41
2022/09/08 03:36:58;;;;;;;19.88;3.65;;;;;;;15.23;90.60;99432.28;6218109;23;20017;-39
2022/09/08 03:39:25;;;;;;;9.20;1.90;;;;;;;15.21;90.83;99439.47;6217516;23;20027;-41
2022/09/08 03:41:51;;;;;;;11.00;2.40;;;;;;;15.19;91.00;99436.31;6213984;23;20021;-40
2022/09/08 03:44:18;;;;;;;16.83;2.63;;;;;;;15.14;91.21;99431.16;6219114;23;20359;-41
2022/09/08 03:46:45;;;;;;;11.10;1.85;;;;;;;15.13;91.22;99435.94;6190637;23;20026;-41
2022/09/08 03:49:28;;;;;;;14.10;2.20;;;;;;;15.12;91.08;99434.34;6216080;23;20021;-39
2022/09/08 03:52:05;;;;;;;14.50;2.08;;;;;;;15.10;91.28;99428.38;6218341;23;20016;-39
2022/09/08 03:54:50;;;;;;;12.80;2.67;;;;;;;15.08;91.38;99430.81;6214774;23;20020;-39
2022/09/08 03:57:38;;;;;;;11.52;2.15;;;;;;;15.06;91.55;99435.19;6210709;23;20473;-42
2022/09/08 04:00:09;;;;;;;11.30;2.10;;;;;;;15.04;91.52;99438.38;6213140;23;20016;-40
2022/09/08 04:02:39;;;;;;;8.70;2.33;;;;;;;15.03;91.63;99434.03;6212112;23;20024;-41
2022/09/08 04:05:06;;;;;;;14.52;2.65;;;;;;;15.01;91.92;99433.59;6211265;23;20024;-41
2022/09/08 04:07:34;;;;;;;12.55;2.17;;;;;;;15.01;92.04;99436.41;6213315;23;20032;-41
2022/09/08 04:10:02;;;;;;;8.65;2.20;;;;;;;14.99;92.19;99435.22;6209473;23;20043;-43
2022/09/08 04:12:39;;;;;;;17.85;3.55;;;;;;;14.98;92.20;99431.66;6209900;23;20100;-40
2022/09/08 04:15:06;;;;;;;10.20;1.60;;;;;;;14.98;92.14;99426.09;6210324;23;20024;-38
2022/09/08 04:17:33;;;;;;;13.60;1.85;;;;;;;14.98;92.04;99431.66;6212000;23;20021;-42
2022/09/08 04:20:08;;;;;;;11.40;1.52;;;;;;;14.98;92.04;99431.66;6213660;23;20043;-40
2022/09/08 04:22:55;;;;;;;11.02;2.63;;;;;;;14.98;92.01;99437.25;6098778;23;20397;-45
2022/09/08 04:25:43;;;;;;;10.52;1.70;;;;;;;14.98;91.98;99431.66;6095264;23;20026;-39
2022/09/08 04:28:31;;;;;;;7.90;1.63;;;;;;;14.98;92.05;99440.03;6132374;23;20047;-41
2022/09/08 04:30:58;;;;;;;14.48;4.13;;;;;;;15.00;91.94;99443.19;6210166;23;20016;-39
2022/09/08 04:33:26;;;;;;;10.13;2.20;;;;;;;15.01;91.87;99444.00;6184477;23;20047;-39
2022/09/08 04:35:52;;;;;;;9.30;1.83;;;;;;;15.02;91.90;99448.34;6211398;23;20123;-41
2022/09/08 04:38:42;;;;;;;8.18;2.33;;;;;;;15.03;91.84;99445.16;6213980;23;20031;-41
2022/09/08 04:41:31;;;;;;;10.35;2.00;;;;;;;15.04;91.71;99435.59;6213109;23;20024;-41
2022/09/08 04:44:12;;;;;;;10.73;1.67;;;;;;;15.05;91.68;99442.75;6209171;23;20043;-40
2022/09/08 04:46:39;;;;;;;11.52;3.05;;;;;;;15.06;91.64;99443.56;6213870;23;20016;-41
2022/09/08 04:49:06;;;;;;;12.32;1.90;;;;;;;15.08;91.70;99447.53;6212877;23;20087;-41
2022/09/08 04:55:40;;;;;;;8.75;1.80;;;;;;;15.09;91.43;99451.13;6258324;22;20020;-40
2022/09/08 04:58:31;;;;;;;16.90;2.97;;;;;;;15.07;91.28;99443.13;6275872;22;20023;-39
2022/09/08 05:21:21;;;;;;;11.65;3.03;;;;;;;14.84;91.96;99451.22;6237048;23;20035;-40
2022/09/08 05:23:51;;;;;;;13.55;4.10;;;;;;;14.83;92.12;99451.63;6212728;23;20179;-39
2022/09/08 05:26:19;;;;;;;10.65;2.00;;;;;;;14.81;92.42;99443.69;6158116;23;20020;-48
2022/09/08 05:28:46;;;;;;;7.88;2.30;;;;;;;14.80;92.35;99441.31;6210332;23;20047;-42
2022/09/08 05:31:21;;;;;;;9.40;1.98;;;;;;;14.81;92.44;99448.44;6212349;23;20112;-40
2022/09/08 05:33:49;;;;;;;16.88;2.30;;;;;;;14.80;92.64;99439.28;6211530;23;20017;-45
2022/09/08 05:36:21;;;;;;;8.27;1.75;;;;;;;14.80;92.63;99436.50;6212856;23;20112;-46
2022/09/08 05:38:48;;;;;;;11.00;1.83;;;;;;;14.81;92.74;99443.69;6213160;23;20020;-41
2022/09/08 05:41:16;;;;;;;9.10;1.75;;;;;;;14.81;92.71;99449.25;6213573;23;20099;-41
2022/09/08 05:43:44;;;;;;;8.75;1.45;;;;;;;14.83;92.71;99451.63;6214209;23;20025;-41
2022/09/08 05:46:11;;;;;;;10.32;2.58;;;;;;;14.83;92.56;99446.84;6212771;23;20346;-40
2022/09/08 05:48:45;;;;;;;10.10;1.95;;;;;;;14.84;92.64;99456.81;6187486;23;20055;-41
2022/09/08 05:51:19;;;;;;;14.70;3.88;;;;;;;14.85;92.66;99458.38;6215028;23;20027;-43
2022/09/08 05:53:47;;;;;;;14.75;2.00;;;;;;;14.87;92.71;99458.78;6211927;23;20071;-44
2022/09/08 05:56:34;;;;;;;11.68;2.25;;;;;;;14.89;92.75;99467.53;6210780;23;21079;-42
2022/09/08 05:59:21;;;;;;;16.60;2.53;;;;;;;14.90;92.76;99462.75;6213710;23;20417;-41
2022/09/08 06:02:08;;;;;;;14.30;2.72;;;;;;;14.91;92.74;99461.53;6213191;23;20159;-40
2022/09/08 06:04:56;;;;;;;18.17;4.18;;;;;;;14.91;92.95;99464.31;6214930;23;20035;-41
2022/09/08 06:07:42;;;;;;;9.48;2.30;;;;;;;14.91;92.78;99469.91;6213666;23;20118;-41
2022/09/08 06:10:29;;;;;;;8.80;2.00;;;;;;;14.92;92.91;99477.88;6213712;23;20382;-42
2022/09/08 06:13:23;;;;;;;8.38;2.20;;;;;;;14.93;92.96;99476.66;6212728;23;20020;-42
2022/09/08 06:16:13;;;;;;;10.23;3.70;;;;;;;14.93;92.80;99471.06;6214228;23;20466;-41
2022/09/08 06:19:01;;;;;;;11.27;2.22;;;;;;;14.94;92.89;99475.47;6214583;23;20028;-46
2022/09/08 06:21:48;;;;;;;14.05;2.20;;;;;;;14.96;92.90;99478.63;6219422;23;20024;-41
2022/09/08 06:24:15;;;;;;;16.77;2.45;;;;;;;14.98;92.97;99487.41;6243894;23;20062;-44
2022/09/08 06:26:58;;;;;;;11.52;3.10;;;;;;;14.98;93.07;99476.25;6241242;23;20430;-42
2022/09/08 06:30:11;;;;;;;10.88;3.10;;;;;;;15.00;92.94;99484.19;6244556;23;20485;-42
2022/09/08 06:33:03;;;;;;;15.75;2.33;;;;;;;15.00;92.96;99481.41;6241089;23;20031;-41
2022/09/08 06:36:09;;;;;;;11.02;2.13;;;;;;;15.00;92.99;99482.22;6244157;23;20028;-41
2022/09/08 06:39:03;;;;;;;9.90;2.63;;;;;;;15.01;93.08;99481.00;6243360;23;20028;-44
2022/09/08 06:41:33;;;;;;;7.85;2.13;;;;;;;15.03;92.98;99481.41;6244154;23;20066;-41
2022/09/08 06:44:11;;;;;;;10.68;2.38;;;;;;;15.05;92.88;99487.34;6245118;23;20016;-45
2022/09/08 06:46:41;;;;;;;14.20;1.67;;;;;;;15.06;92.55;99483.34;6243495;23;20395;-42
2022/09/08 06:49:29;;;;;;;10.27;3.40;;;;;;;15.08;92.51;99480.19;6241945;23;20024;-43
2022/09/08 06:52:24;;;;;;;7.90;1.42;;;;;;;15.09;92.20;99490.91;6242855;23;20385;-40
2022/09/08 06:55:18;;;;;;;8.88;2.17;;;;;;;15.13;91.94;99494.50;6244096;23;20054;-41
2022/09/08 06:58:17;;;;;;;25.25;5.03;;;;;;;15.14;92.01;99496.06;6244914;23;20074;-40
2022/09/08 07:01:20;;;;;;;11.80;2.03;;;;;;;15.18;91.81;99494.06;6244048;23;20024;-41
2022/09/08 07:04:30;;;;;;;7.70;1.90;;;;;;;15.19;91.69;99497.66;6240201;23;20028;-41
2022/09/08 07:07:12;;;;;;;8.15;2.22;;;;;;;15.21;91.56;99504.41;6215692;23;20339;-44
2022/09/08 07:09:47;;;;;;;12.30;1.65;;;;;;;15.22;91.71;99511.56;6243425;23;20020;-41
2022/09/08 07:12:45;;;;;;;9.90;2.22;;;;;;;15.25;91.58;99513.53;6242953;23;20016;-42
2022/09/08 07:27:17;;;;;;;13.32;2.63;;;;;;;15.37;91.86;99517.88;6235237;22;20466;-40
2022/09/08 07:30:05;;;;;;;16.77;3.20;;;;;;;15.40;92.13;99513.47;6196255;23;20035;-39
2022/09/08 07:33:01;;;;;;;12.25;3.45;;;;;;;15.42;92.41;99516.63;6214345;23;20451;-39
2022/09/08 07:36:26;;;;;;;16.60;3.15;;;;;;;15.42;92.38;99517.44;6215773;23;20099;-39
2022/09/08 07:39:22;;;;;;;10.07;2.60;;;;;;;15.44;92.52;99519.81;6219667;23;20086;-45
2022/09/08 07:41:54;;;;;;;16.73;3.60;;;;;;;15.47;92.51;99524.59;6216571;23;20020;-40
2022/09/08 07:44:21;;;;;;;16.83;2.92;;;;;;;15.50;92.71;99524.59;6219162;23;20323;-41
2022/09/08 07:47:06;;;;;;;9.20;2.35;;;;;;;15.54;92.72;99525.34;6216772;23;20020;-41
2022/09/08 07:49:52;;;;;;;11.07;2.30;;;;;;;15.54;92.72;99521.78;6191667;23;20023;-40
2022/09/08 07:52:43;;;;;;;16.00;3.25;;;;;;;15.56;92.76;99522.16;6217095;23;20132;-40
2022/09/08 07:55:39;;;;;;;6.80;2.25;;;;;;;15.54;92.59;99528.13;6216190;23;20094;-40
2022/09/08 07:58:48;;;;;;;6.53;1.75;;;;;;;15.53;92.35;99534.13;6218186;23;20105;-41
2022/09/08 08:01:52;;;;;;;8.27;1.53;;;;;;;15.52;92.44;99533.34;6215540;23;20021;-41
2022/09/08 08:04:47;;;;;;;11.10;1.90;;;;;;;15.54;92.21;99527.38;6217376;23;20016;-41
2022/09/08 08:07:37;;;;;;;11.90;2.10;;;;;;;15.53;92.23;99531.34;6218909;23;20027;-39
2022/09/08 08:10:13;;;;;;;;;;;;;;;15.51;92.32;99530.97;6204735;23;20056;-44
2022/09/08 08:13:32;;;;;;;15.32;3.05;;;;;;;15.50;92.34;99523.78;6212383;23;19916;-42
2022/09/08 08:16:13;;;;;;;10.07;2.38;;;;;;;15.47;92.47;99536.56;6182743;23;20021;-42
2022/09/08 08:19:06;;;;;;;11.95;2.33;;;;;;;15.46;92.48;99546.13;6201223;23;20034;-41
2022/09/08 08:21:56;;;;;;;12.93;4.10;;;;;;;15.43;92.56;99541.34;6210401;23;20017;-40
2022/09/08 08:25:06;;;;;;;10.30;2.78;;;;;;;15.38;92.73;99543.75;6211611;23;20378;-57
2022/09/08 08:27:43;;;;;;;7.68;1.75;;;;;;;15.28;92.97;99548.19;6233611;23;20458;-41
2022/09/08 08:30:22;;;;;;;13.35;1.70;;;;;;;15.26;93.34;99547.78;6241310;23;20085;-40
2022/09/08 08:33:03;;;;;;;18.27;1.90;;;;;;;15.30;93.59;99543.00;6243259;23;20283;-39
2022/09/08 08:35:47;;;;;;;6.80;1.90;;;;;;;15.38;93.97;99552.13;6215722;23;20024;-41
2022/09/08 08:38:40;;;;;;;12.98;2.63;;;;;;;15.45;94.07;99554.88;6216458;23;20024;-41
2022/09/08 08:41:33;;;;;;;;;;;;;;;15.51;94.16;99548.50;6241337;23;20024;-38
2022/09/08 08:44:39;;;;;;;20.02;3.25;;;;;;;15.62;94.19;99554.03;6240220;23;19927;-39
2022/09/08 08:47:44;;;;;;;17.42;3.38;;;;;;;15.70;94.29;99545.19;6242087;23;20024;-39
2022/09/08 08:50:52;;;;;;;11.35;2.30;;;;;;;15.80;94.59;99557.50;6243099;23;20024;-41
2022/09/08 08:53:44;;;;;;;19.67;2.53;;;;;;;15.87;94.45;99551.84;6242676;23;20402;-39
2022/09/08 08:56:56;;;;;;;15.00;2.40;;;;;;;16.00;95.03;99547.34;6242525;22;20170;-39
2022/09/08 09:00:02;;;;;;;11.48;2.47;;;;;;;16.29;94.48;99548.72;6243277;22;20028;-40
2022/09/08 09:02:58;;;;;;;22.73;4.05;;;;;;;16.39;93.82;99561.00;6241844;23;20013;-41
2022/09/08 09:05:56;;;;;;;10.32;2.72;;;;;;;16.40;93.81;99557.78;6237880;23;20016;-43
2022/09/08 09:08:41;;;;;;;15.00;3.70;;;;;;;16.66;94.58;99566.75;6240151;23;20435;-43
2022/09/08 09:11:26;;;;;;;16.05;3.03;;;;;;;17.57;94.69;99562.91;6213066;23;20017;-40
2022/09/08 09:14:20;;;;;;;8.07;1.95;;;;;;;18.87;91.62;99561.19;6217024;23;20016;-40
2022/09/08 09:17:54;;;;;;;13.23;1.88;;;;;;;19.27;89.40;99574.03;6243124;23;20060;-41
2022/09/08 09:20:36;;;;;;;6.28;1.40;;;;;;;18.78;88.90;99575.78;6163583;23;20100;-44
2022/09/08 09:23:13;;;;;;;9.38;1.50;;;;;;;18.41;89.96;99574.00;6243364;23;20020;-39
2022/09/08 09:26:22;;;;;;;7.90;2.13;;;;;;;18.57;91.00;99571.34;6245407;23;20030;-42
2022/09/08 09:29:02;;;;;;;11.00;1.83;;;;;;;18.95;89.69;99574.66;6172559;23;20020;-42
2022/09/08 09:31:53;;;;;;;9.63;1.00;;;;;;;19.67;87.02;99575.56;6243059;23;20016;-52
2022/09/08 09:34:49;;;;;;;11.60;2.10;;;;;;;20.13;84.65;99574.50;6244814;23;20043;-41
2022/09/08 09:37:34;;;;;;;12.45;1.67;;;;;;;19.74;82.61;99592.28;6244091;23;20016;-41
2022/09/08 09:40:11;;;;;;;7.25;1.90;;;;;;;19.29;83.49;99588.41;6242507;23;20047;-43
2022/09/08 09:43:10;;;;;;;8.15;2.42;;;;;;;18.90;84.44;99591.19;6244679;23;20024;-40
2022/09/08 09:45:46;;;;;;;8.25;2.25;;;;;;;18.55;84.36;99604.63;6214939;23;20023;-47
2022/09/08 09:48:26;;;;;;;6.30;1.38;;;;;;;18.36;84.29;99605.31;6246450;23;20074;-45
2022/09/08 09:51:11;;;;;;;4.15;1.30;;;;;;;18.27;83.78;99602.25;6243869;23;20462;-41
2022/09/08 09:54:00;;;;;;;6.55;1.60;;;;;;;18.13;84.15;99594.09;6245384;23;20030;-43
2022/09/08 09:56:56;;;;;;;9.27;1.73;;;;;;;17.98;83.96;99598.28;6244411;23;20024;-42
2022/09/08 10:00:17;;;;;;;17.80;3.72;;;;;;;17.97;84.11;99605.13;6239825;23;20178;-39
2022/09/08 10:03:25;;;;;;;6.90;2.03;;;;;;;17.92;84.00;99602.81;6242341;23;20028;-40
2022/09/08 10:06:41;;;;;;;12.20;2.20;;;;;;;17.85;83.91;99605.69;6242984;23;20334;-42
2022/09/08 10:09:36;;;;;;;10.50;2.42;;;;;;;17.64;84.26;99615.97;6215905;23;20050;-42
2022/09/08 10:12:48;;;;;;;11.93;2.92;;;;;;;17.60;84.61;99612.44;6244674;23;20107;-41
2022/09/08 10:16:26;;;;;;;12.10;2.80;;;;;;;17.70;84.45;99609.91;6245372;22;20028;-41
2022/09/08 10:19:37;;;;;;;25.60;3.85;;;;;;;17.63;84.42;99614.38;6093133;23;20516;-43
2022/09/08 10:22:34;;;;;;;15.75;3.65;;;;;;;17.61;84.56;99614.00;6091566;23;20101;-42
2022/09/08 10:25:52;;;;;;;15.63;2.75;;;;;;;17.53;84.34;99609.72;6241589;23;20031;-41
2022/09/08 10:28:39;;;;;;;10.63;2.33;;;;;;;17.52;84.70;99619.31;6211474;23;20525;-43
2022/09/08 10:32:02;;;;;;;18.60;4.72;;;;;;;17.58;84.75;99616.84;6214396;23;20020;-46
2022/09/08 10:35:14;;;;;;;22.83;3.65;;;;;;;17.58;84.79;99614.84;6212587;23;20044;-42
2022/09/08 10:58:50;;;;;;;11.70;3.65;;;;;;;17.42;84.82;99637.00;6273934;22;20023;-43
2022/09/08 11:02:09;;;;;;;14.07;2.88;;;;;;;17.37;84.90;99617.09;6274933;22;20027;-41
2022/09/08 11:04:59;;;;;;;16.02;2.95;;;;;;;17.47;84.96;99632.97;6273037;22;20472;-39
2022/09/08 11:07:35;;;;;;;14.88;2.90;;;;;;;17.62;84.67;99626.81;6279696;22;20020;-41
2022/09/08 11:10:35;;;;;;;15.75;2.88;;;;;;;17.85;83.99;99631.69;6280085;22;20015;-42
2022/09/08 11:13:23;;;;;;;15.05;3.17;;;;;;;17.95;83.94;99629.97;6280011;22;20026;-42
2022/09/08 11:16:28;;;;;;;14.27;2.80;;;;;;;17.83;83.68;99628.53;6275862;22;20024;-44
2022/09/08 11:19:21;;;;;;;27.63;3.72;;;;;;;17.73;84.10;99629.47;6278048;22;20024;-41
2022/09/08 11:22:33;;;;;;;10.07;2.67;;;;;;;17.76;84.03;99633.44;6278899;22;20027;-41
2022/09/08 11:25:23;;;;;;;12.77;4.47;;;;;;;17.84;83.91;99634.91;6273734;22;20073;-57
2022/09/08 11:28:10;;;;;;;12.70;3.88;;;;;;;17.93;83.92;99647.19;6277741;22;20034;-40
2022/09/08 11:31:25;;;;;;;12.77;3.33;;;;;;;18.08;83.39;99630.97;6277206;22;20027;-40
2022/09/08 11:34:12;;;;;;;20.52;4.38;;;;;;;18.28;83.31;99643.06;6277962;22;20062;-41
2022/09/08 11:37:20;;;;;;;12.73;2.60;;;;;;;18.37;82.79;99651.75;6278814;22;20023;-42
2022/09/08 11:40:22;;;;;;;20.35;4.40;;;;;;;18.54;82.87;99639.47;6205687;22;20019;-39
2022/09/08 11:43:13;;;;;;;12.15;4.60;;;;;;;18.65;82.28;99642.91;6226279;22;20015;-40
2022/09/08 11:46:22;;;;;;;13.82;4.20;;;;;;;18.87;82.01;99654.53;6279177;22;20031;-41
2022/09/08 11:49:19;;;;;;;13.82;2.60;;;;;;;18.83;81.33;99657.41;6279334;22;20011;-40
2022/09/08 11:52:37;;;;;;;14.95;2.55;;;;;;;18.71;80.58;99660.81;6276414;22;20019;-41
2022/09/08 11:56:02;;;;;;;17.33;3.47;;;;;;;18.68;80.75;99660.88;6276660;22;20016;-44
2022/09/08 11:59:30;;;;;;;14.32;3.03;;;;;;;18.73;79.92;99657.56;6273733;22;20032;-46
2022/09/08 12:02:45;;;;;;;19.23;2.90;;;;;;;18.67;79.75;99664.88;6277952;22;20023;-41
2022/09/08 12:05:52;;;;;;;10.45;3.35;;;;;;;18.50;79.24;99671.59;6238791;22;20082;-40
2022/09/08 12:09:08;;;;;;;14.07;3.10;;;;;;;18.35;80.02;99670.19;6184319;23;20024;-42
2022/09/08 12:12:17;;;;;;;15.75;2.95;;;;;;;18.18;79.74;99677.66;6161585;23;20101;-40
2022/09/08 12:20:13;;;;;;;17.40;3.75;;;;;;;17.96;80.46;99684.75;6229623;23;20078;-44
2022/09/08 12:23:24;;;;;;;14.88;3.20;;;;;;;17.92;80.27;99687.63;6242033;23;20051;-40
2022/09/08 12:27:04;;;;;;;16.10;3.55;;;;;;;17.78;80.24;99698.19;6241307;23;20077;-44
2022/09/08 12:30:12;;;;;;;15.85;4.57;;;;;;;17.90;80.79;99694.81;6149988;23;20024;-41
2022/09/08 12:33:20;;;;;;;18.80;2.72;;;;;;;18.04;80.13;99697.44;6237351;23;20024;-45
2022/09/08 12:36:32;;;;;;;12.55;2.97;;;;;;;17.87;80.00;99696.47;6241579;23;20047;-42
2022/09/08 12:39:34;;;;;;;15.43;3.00;;;;;;;17.83;80.23;99706.13;6238813;23;20532;-44
2022/09/08 12:42:24;;;;;;;18.15;3.25;;;;;;;18.01;80.67;99695.47;6242561;23;20099;-41
2022/09/08 12:45:25;;;;;;;9.77;2.47;;;;;;;18.19;80.02;99693.22;6238747;23;20031;-41
2022/09/08 12:48:39;;;;;;;11.75;3.60;;;;;;;18.13;80.01;99704.13;6240624;23;20047;-41
2022/09/08 12:51:31;;;;;;;13.70;3.92;;;;;;;18.01;80.18;99707.47;6242872;23;20023;-41
2022/09/08 12:54:43;;;;;;;10.02;2.88;;;;;;;17.88;80.04;99711.25;6236473;23;20024;-42
2022/09/08 12:57:30;;;;;;;17.15;2.38;;;;;;;17.84;80.32;99713.31;6181485;23;20016;-39
2022/09/08 13:00:12;;;;;;;14.77;3.28;;;;;;;17.72;80.00;99708.25;6241695;23;20016;-40
2022/09/08 13:03:16;;;;;;;21.83;5.07;;;;;;;17.69;79.89;99706.28;6243563;23;20066;-41
2022/09/08 13:06:07;;;;;;;11.25;3.03;;;;;;;17.70;80.18;99707.88;6240265;23;20020;-41
2022/09/08 13:09:08;;;;;;;20.75;4.18;;;;;;;17.75;79.74;99710.22;6241545;23;20024;-41
2022/09/08 13:12:50;;;;;;;17.75;4.63;;;;;;;17.60;80.08;99704.81;6240206;23;20020;-40
2022/09/08 13:16:07;;;;;;;21.17;6.70;;;;;;;17.29;81.36;99714.28;6241540;23;20454;-40
2022/09/08 13:19:03;;;;;;;23.83;8.25;;;;;;;17.13;82.44;99711.25;6237752;23;20023;-41
2022/09/08 13:21:56;;;;;;;22.63;7.72;;;;;;;17.14;83.18;99709.25;6238415;23;20024;-39
2022/09/08 13:29:58;;;;;;;23.27;5.72;;;;;;;17.32;83.90;99713.47;6207683;22;20086;-44
2022/09/08 13:33:48;;;;;;;14.02;4.90;;;;;;;17.45;84.56;99716.53;6208345;23;20455;-59
2022/09/08 13:36:45;;;;;;;21.35;5.70;;;;;;;17.48;84.17;99713.69;6210257;23;20029;-41
2022/09/08 13:39:38;;;;;;;13.40;5.57;;;;;;;17.45;84.15;99720.13;6210623;23;20028;-39
2022/09/08 13:42:33;;;;;;;14.80;4.72;;;;;;;17.43;84.40;99716.97;6210827;23;20027;-39
2022/09/08 13:45:18;;;;;;;19.58;5.95;;;;;;;17.49;84.51;99715.31;6212311;23;20020;-47
2022/09/08 13:48:15;;;;;;;18.27;5.00;;;;;;;17.58;84.38;99712.81;6211715;23;20020;-39
2022/09/08 13:51:18;;;;;;;12.05;4.43;;;;;;;17.66;84.43;99713.50;6208576;23;20383;-41
2022/09/08 13:54:17;;;;;;;23.75;6.28;;;;;;;17.75;nan;99713.03;6213037;23;20016;-45
2022/09/08 13:56:58;;;;;;;12.95;5.00;;;;;;;17.72;83.50;99725.06;6211444;23;20095;-40
2022/09/08 13:59:46;;;;;;;28.27;7.88;;;;;;;17.60;83.59;99716.00;6209956;23;20348;-51
2022/09/08 14:02:44;;;;;;;15.88;4.38;;;;;;;17.56;84.06;99734.84;6212239;23;20071;-41
2022/09/08 14:05:28;;;;;;;20.23;4.22;;;;;;;17.53;83.99;99730.06;6212775;23;20048;-39
2022/09/08 14:08:10;;;;;;;19.65;6.20;;;;;;;17.54;83.50;99725.25;6188430;23;20379;-51
2022/09/08 14:11:09;;;;;;;16.38;5.55;;;;;;;17.51;83.69;99726.06;6210880;23;20025;-44
2022/09/08 14:13:37;;;;;;;22.73;5.00;;;;;;;17.51;83.51;99721.25;6185235;23;20017;-39